sensor_id;sensor_type;location;lat;lon;timestamp;P1;durP1;ratioP1;P2;durP2;ratioP2
34489;SDS011;20730;49.372;7.324;2023-06-14T00:00:47;9.38;;;6.15;;
34489;SDS011;20730;49.372;7.324;2023-06-14T00:03:15;7.97;;;5.10;;
34489;SDS011;20730;49.372;7.324;2023-06-14T00:05:44;11.52;;;5.53;;
34489;SDS011;20730;49.372;7.324;2023-06-14T00:08:13;10.13;;;5.57;;
34489;SDS011;20730;49.372;7.324;2023-06-14T00:10:40;11.90;;;5.82;;
34489;SDS011;20730;49.372;7.324;2023-06-14T00:13:09;14.73;;;5.75;;
34489;SDS011;20730;49.372;7.324;2023-06-14T00:15:37;10.05;;;6.10;;
34489;SDS011;20730;49.372;7.324;2023-06-14T00:18:04;8.07;;;6.10;;
34489;SDS011;20730;49.372;7.324;2023-06-14T00:20:32;9.00;;;5.57;;
34489;SDS011;20730;49.372;7.324;2023-06-14T00:23:00;12.18;;;5.80;;
34489;SDS011;20730;49.372;7.324;2023-06-14T00:25:27;9.23;;;6.13;;
34489;SDS011;20730;49.372;7.324;2023-06-14T00:27:56;6.22;;;5.63;;
34489;SDS011;20730;49.372;7.324;2023-06-14T00:30:24;6.90;;;5.40;;
34489;SDS011;20730;49.372;7.324;2023-06-14T00:32:52;8.00;;;5.40;;
34489;SDS011;20730;49.372;7.324;2023-06-14T00:35:19;7.22;;;5.85;;
34489;SDS011;20730;49.372;7.324;2023-06-14T00:37:47;7.63;;;5.75;;
34489;SDS011;20730;49.372;7.324;2023-06-14T00:40:14;7.22;;;5.47;;
34489;SDS011;20730;49.372;7.324;2023-06-14T00:42:41;8.38;;;5.53;;
34489;SDS011;20730;49.372;7.324;2023-06-14T00:45:09;7.05;;;5.90;;
34489;SDS011;20730;49.372;7.324;2023-06-14T00:47:37;7.88;;;5.63;;
34489;SDS011;20730;49.372;7.324;2023-06-14T00:50:07;10.10;;;5.75;;
34489;SDS011;20730;49.372;7.324;2023-06-14T00:52:35;9.40;;;5.65;;
34489;SDS011;20730;49.372;7.324;2023-06-14T00:55:03;8.57;;;5.57;;
34489;SDS011;20730;49.372;7.324;2023-06-14T00:57:30;7.47;;;5.55;;
34489;SDS011;20730;49.372;7.324;2023-06-14T00:59:58;7.85;;;5.38;;
34489;SDS011;20730;49.372;7.324;2023-06-14T01:02:25;8.13;;;6.25;;
34489;SDS011;20730;49.372;7.324;2023-06-14T01:04:52;7.53;;;6.20;;
34489;SDS011;20730;49.372;7.324;2023-06-14T01:10:20;8.18;;;5.28;;
34489;SDS011;20730;49.372;7.324;2023-06-14T01:15:26;7.10;;;4.80;;
34489;SDS011;20730;49.372;7.324;2023-06-14T01:17:54;6.57;;;4.85;;
34489;SDS011;20730;49.372;7.324;2023-06-14T01:20:27;11.73;;;5.25;;
34489;SDS011;20730;49.372;7.324;2023-06-14T01:22:55;7.30;;;5.75;;
34489;SDS011;20730;49.372;7.324;2023-06-14T01:25:22;9.18;;;6.10;;
34489;SDS011;20730;49.372;7.324;2023-06-14T01:27:50;8.65;;;5.50;;
34489;SDS011;20730;49.372;7.324;2023-06-14T01:30:19;6.57;;;5.28;;
34489;SDS011;20730;49.372;7.324;2023-06-14T01:32:47;9.18;;;5.88;;
34489;SDS011;20730;49.372;7.324;2023-06-14T01:35:15;9.85;;;5.25;;
34489;SDS011;20730;49.372;7.324;2023-06-14T01:37:42;7.68;;;5.45;;
34489;SDS011;20730;49.372;7.324;2023-06-14T01:40:10;8.32;;;5.25;;
34489;SDS011;20730;49.372;7.324;2023-06-14T01:42:37;6.68;;;4.93;;
34489;SDS011;20730;49.372;7.324;2023-06-14T01:45:05;7.82;;;5.72;;
34489;SDS011;20730;49.372;7.324;2023-06-14T01:47:32;7.38;;;5.60;;
34489;SDS011;20730;49.372;7.324;2023-06-14T01:50:00;6.35;;;5.22;;
34489;SDS011;20730;49.372;7.324;2023-06-14T01:52:27;6.82;;;5.20;;
34489;SDS011;20730;49.372;7.324;2023-06-14T01:54:53;9.13;;;6.60;;
34489;SDS011;20730;49.372;7.324;2023-06-14T01:57:22;7.18;;;4.95;;
34489;SDS011;20730;49.372;7.324;2023-06-14T01:59:49;6.97;;;4.60;;
34489;SDS011;20730;49.372;7.324;2023-06-14T02:02:17;9.05;;;4.95;;
34489;SDS011;20730;49.372;7.324;2023-06-14T02:04:43;7.97;;;5.03;;
34489;SDS011;20730;49.372;7.324;2023-06-14T02:07:13;7.20;;;4.90;;
34489;SDS011;20730;49.372;7.324;2023-06-14T02:09:41;7.22;;;5.40;;
34489;SDS011;20730;49.372;7.324;2023-06-14T02:12:08;6.88;;;4.97;;
34489;SDS011;20730;49.372;7.324;2023-06-14T02:14:35;8.27;;;5.22;;
34489;SDS011;20730;49.372;7.324;2023-06-14T02:17:02;7.15;;;5.15;;
34489;SDS011;20730;49.372;7.324;2023-06-14T02:19:28;9.57;;;5.57;;
34489;SDS011;20730;49.372;7.324;2023-06-14T02:21:55;6.55;;;5.35;;
34489;SDS011;20730;49.372;7.324;2023-06-14T02:24:22;7.32;;;5.00;;
34489;SDS011;20730;49.372;7.324;2023-06-14T02:26:50;7.95;;;5.28;;
34489;SDS011;20730;49.372;7.324;2023-06-14T02:29:16;6.07;;;4.93;;
34489;SDS011;20730;49.372;7.324;2023-06-14T02:31:43;7.70;;;5.45;;
34489;SDS011;20730;49.372;7.324;2023-06-14T02:34:11;7.90;;;5.20;;
34489;SDS011;20730;49.372;7.324;2023-06-14T02:36:38;7.05;;;5.45;;
34489;SDS011;20730;49.372;7.324;2023-06-14T02:39:08;7.80;;;4.82;;
34489;SDS011;20730;49.372;7.324;2023-06-14T02:41:38;7.50;;;5.53;;
34489;SDS011;20730;49.372;7.324;2023-06-14T02:44:05;10.25;;;5.25;;
34489;SDS011;20730;49.372;7.324;2023-06-14T02:46:32;6.55;;;5.03;;
34489;SDS011;20730;49.372;7.324;2023-06-14T02:48:59;7.05;;;5.20;;
34489;SDS011;20730;49.372;7.324;2023-06-14T02:51:26;8.13;;;5.72;;
34489;SDS011;20730;49.372;7.324;2023-06-14T02:53:53;6.55;;;5.00;;
34489;SDS011;20730;49.372;7.324;2023-06-14T02:56:20;7.32;;;5.97;;
34489;SDS011;20730;49.372;7.324;2023-06-14T02:58:49;9.05;;;5.65;;
34489;SDS011;20730;49.372;7.324;2023-06-14T03:01:16;10.93;;;5.85;;
34489;SDS011;20730;49.372;7.324;2023-06-14T03:03:44;6.50;;;5.68;;
34489;SDS011;20730;49.372;7.324;2023-06-14T03:06:11;8.27;;;5.60;;
34489;SDS011;20730;49.372;7.324;2023-06-14T03:08:42;7.55;;;5.47;;
34489;SDS011;20730;49.372;7.324;2023-06-14T03:11:13;8.50;;;5.80;;
34489;SDS011;20730;49.372;7.324;2023-06-14T03:13:41;8.32;;;5.50;;
34489;SDS011;20730;49.372;7.324;2023-06-14T03:16:08;9.93;;;5.50;;
34489;SDS011;20730;49.372;7.324;2023-06-14T03:18:38;7.10;;;5.40;;
34489;SDS011;20730;49.372;7.324;2023-06-14T03:21:06;7.18;;;5.43;;
34489;SDS011;20730;49.372;7.324;2023-06-14T03:23:37;6.00;;;5.22;;
34489;SDS011;20730;49.372;7.324;2023-06-14T03:26:04;7.30;;;5.03;;
34489;SDS011;20730;49.372;7.324;2023-06-14T03:28:31;8.13;;;5.78;;
34489;SDS011;20730;49.372;7.324;2023-06-14T03:30:58;9.18;;;5.20;;
34489;SDS011;20730;49.372;7.324;2023-06-14T03:33:28;11.27;;;5.55;;
34489;SDS011;20730;49.372;7.324;2023-06-14T03:35:55;7.07;;;5.60;;
34489;SDS011;20730;49.372;7.324;2023-06-14T03:38:23;7.88;;;5.72;;
34489;SDS011;20730;49.372;7.324;2023-06-14T03:40:50;6.43;;;5.57;;
34489;SDS011;20730;49.372;7.324;2023-06-14T03:43:17;7.03;;;5.40;;
34489;SDS011;20730;49.372;7.324;2023-06-14T03:45:43;9.73;;;5.68;;
34489;SDS011;20730;49.372;7.324;2023-06-14T03:48:11;9.32;;;5.40;;
34489;SDS011;20730;49.372;7.324;2023-06-14T03:50:38;11.13;;;5.15;;
34489;SDS011;20730;49.372;7.324;2023-06-14T03:53:05;7.28;;;5.45;;
34489;SDS011;20730;49.372;7.324;2023-06-14T03:55:32;6.18;;;5.15;;
34489;SDS011;20730;49.372;7.324;2023-06-14T03:58:03;6.45;;;5.07;;
34489;SDS011;20730;49.372;7.324;2023-06-14T04:00:30;10.52;;;5.32;;
34489;SDS011;20730;49.372;7.324;2023-06-14T04:02:58;5.90;;;5.13;;
34489;SDS011;20730;49.372;7.324;2023-06-14T04:05:25;7.78;;;5.40;;
34489;SDS011;20730;49.372;7.324;2023-06-14T04:07:54;7.57;;;5.43;;
34489;SDS011;20730;49.372;7.324;2023-06-14T04:10:22;8.25;;;5.82;;
34489;SDS011;20730;49.372;7.324;2023-06-14T04:12:49;6.03;;;5.20;;
34489;SDS011;20730;49.372;7.324;2023-06-14T04:15:16;9.15;;;5.20;;
34489;SDS011;20730;49.372;7.324;2023-06-14T04:17:48;8.30;;;5.30;;
34489;SDS011;20730;49.372;7.324;2023-06-14T04:20:15;7.45;;;5.22;;
34489;SDS011;20730;49.372;7.324;2023-06-14T04:22:43;10.85;;;5.32;;
34489;SDS011;20730;49.372;7.324;2023-06-14T04:25:11;7.18;;;5.40;;
34489;SDS011;20730;49.372;7.324;2023-06-14T04:27:40;10.55;;;5.28;;
34489;SDS011;20730;49.372;7.324;2023-06-14T04:30:08;6.07;;;5.40;;
34489;SDS011;20730;49.372;7.324;2023-06-14T04:32:40;8.52;;;5.45;;
34489;SDS011;20730;49.372;7.324;2023-06-14T04:37:40;9.30;;;5.43;;
34489;SDS011;20730;49.372;7.324;2023-06-14T04:40:08;18.05;;;5.72;;
34489;SDS011;20730;49.372;7.324;2023-06-14T04:42:39;9.27;;;5.30;;
34489;SDS011;20730;49.372;7.324;2023-06-14T04:45:08;5.90;;;5.30;;
34489;SDS011;20730;49.372;7.324;2023-06-14T04:47:38;14.50;;;5.72;;
34489;SDS011;20730;49.372;7.324;2023-06-14T04:50:06;7.20;;;4.82;;
34489;SDS011;20730;49.372;7.324;2023-06-14T04:52:33;5.55;;;4.50;;
34489;SDS011;20730;49.372;7.324;2023-06-14T04:55:03;6.07;;;4.70;;
34489;SDS011;20730;49.372;7.324;2023-06-14T04:57:30;7.57;;;4.93;;
34489;SDS011;20730;49.372;7.324;2023-06-14T04:59:59;8.15;;;4.90;;
34489;SDS011;20730;49.372;7.324;2023-06-14T05:02:30;6.40;;;5.22;;
34489;SDS011;20730;49.372;7.324;2023-06-14T05:04:58;6.43;;;4.47;;
34489;SDS011;20730;49.372;7.324;2023-06-14T05:07:26;10.90;;;5.22;;
34489;SDS011;20730;49.372;7.324;2023-06-14T05:09:53;8.98;;;4.90;;
34489;SDS011;20730;49.372;7.324;2023-06-14T05:12:20;7.28;;;4.72;;
34489;SDS011;20730;49.372;7.324;2023-06-14T05:14:48;6.75;;;4.95;;
34489;SDS011;20730;49.372;7.324;2023-06-14T05:17:17;6.63;;;4.47;;
34489;SDS011;20730;49.372;7.324;2023-06-14T05:19:44;6.68;;;5.07;;
34489;SDS011;20730;49.372;7.324;2023-06-14T05:22:11;7.95;;;5.03;;
34489;SDS011;20730;49.372;7.324;2023-06-14T05:24:38;6.28;;;4.30;;
34489;SDS011;20730;49.372;7.324;2023-06-14T05:27:04;5.55;;;4.47;;
34489;SDS011;20730;49.372;7.324;2023-06-14T05:29:32;7.00;;;4.47;;
34489;SDS011;20730;49.372;7.324;2023-06-14T05:31:58;10.25;;;4.78;;
34489;SDS011;20730;49.372;7.324;2023-06-14T05:34:25;8.27;;;4.53;;
34489;SDS011;20730;49.372;7.324;2023-06-14T05:36:52;7.05;;;4.22;;
34489;SDS011;20730;49.372;7.324;2023-06-14T05:39:19;6.88;;;4.32;;
34489;SDS011;20730;49.372;7.324;2023-06-14T05:41:45;6.95;;;4.75;;
34489;SDS011;20730;49.372;7.324;2023-06-14T05:44:15;6.70;;;4.07;;
34489;SDS011;20730;49.372;7.324;2023-06-14T05:46:43;5.63;;;4.53;;
34489;SDS011;20730;49.372;7.324;2023-06-14T05:49:09;6.57;;;4.30;;
34489;SDS011;20730;49.372;7.324;2023-06-14T05:51:38;8.38;;;4.22;;
34489;SDS011;20730;49.372;7.324;2023-06-14T05:54:04;9.60;;;4.57;;
34489;SDS011;20730;49.372;7.324;2023-06-14T05:56:31;12.48;;;4.50;;
34489;SDS011;20730;49.372;7.324;2023-06-14T05:58:58;12.70;;;4.43;;
34489;SDS011;20730;49.372;7.324;2023-06-14T06:01:24;6.43;;;4.35;;
34489;SDS011;20730;49.372;7.324;2023-06-14T06:03:51;9.45;;;4.85;;
34489;SDS011;20730;49.372;7.324;2023-06-14T06:06:18;7.95;;;4.22;;
34489;SDS011;20730;49.372;7.324;2023-06-14T06:08:45;7.45;;;4.38;;
34489;SDS011;20730;49.372;7.324;2023-06-14T06:11:14;6.47;;;4.15;;
34489;SDS011;20730;49.372;7.324;2023-06-14T06:13:41;6.82;;;4.47;;
34489;SDS011;20730;49.372;7.324;2023-06-14T06:16:08;6.15;;;4.43;;
34489;SDS011;20730;49.372;7.324;2023-06-14T06:18:35;6.82;;;4.28;;
34489;SDS011;20730;49.372;7.324;2023-06-14T06:21:03;16.63;;;4.78;;
34489;SDS011;20730;49.372;7.324;2023-06-14T06:23:31;7.18;;;4.25;;
34489;SDS011;20730;49.372;7.324;2023-06-14T06:25:57;6.70;;;4.05;;
34489;SDS011;20730;49.372;7.324;2023-06-14T06:28:24;6.90;;;4.90;;
34489;SDS011;20730;49.372;7.324;2023-06-14T06:30:51;6.22;;;4.15;;
34489;SDS011;20730;49.372;7.324;2023-06-14T06:33:18;11.02;;;4.68;;
34489;SDS011;20730;49.372;7.324;2023-06-14T06:35:44;7.85;;;3.88;;
34489;SDS011;20730;49.372;7.324;2023-06-14T06:38:11;7.18;;;4.38;;
34489;SDS011;20730;49.372;7.324;2023-06-14T06:40:38;8.68;;;4.40;;
34489;SDS011;20730;49.372;7.324;2023-06-14T06:43:04;6.70;;;4.20;;
34489;SDS011;20730;49.372;7.324;2023-06-14T06:45:40;8.90;;;4.38;;
34489;SDS011;20730;49.372;7.324;2023-06-14T06:48:06;6.45;;;4.10;;
34489;SDS011;20730;49.372;7.324;2023-06-14T06:50:33;9.65;;;4.43;;
34489;SDS011;20730;49.372;7.324;2023-06-14T06:53:00;6.93;;;4.47;;
34489;SDS011;20730;49.372;7.324;2023-06-14T06:55:27;6.30;;;4.63;;
34489;SDS011;20730;49.372;7.324;2023-06-14T06:57:53;7.68;;;4.70;;
34489;SDS011;20730;49.372;7.324;2023-06-14T07:00:20;6.47;;;4.25;;
34489;SDS011;20730;49.372;7.324;2023-06-14T07:02:47;9.32;;;4.35;;
34489;SDS011;20730;49.372;7.324;2023-06-14T07:05:14;5.78;;;4.40;;
34489;SDS011;20730;49.372;7.324;2023-06-14T07:07:41;9.38;;;4.70;;
34489;SDS011;20730;49.372;7.324;2023-06-14T07:10:08;8.50;;;4.15;;
34489;SDS011;20730;49.372;7.324;2023-06-14T07:12:35;8.27;;;4.32;;
34489;SDS011;20730;49.372;7.324;2023-06-14T07:15:06;10.43;;;4.70;;
34489;SDS011;20730;49.372;7.324;2023-06-14T07:17:34;5.70;;;4.05;;
34489;SDS011;20730;49.372;7.324;2023-06-14T07:20:04;6.25;;;4.20;;
34489;SDS011;20730;49.372;7.324;2023-06-14T07:22:38;9.25;;;4.07;;
34489;SDS011;20730;49.372;7.324;2023-06-14T07:25:09;8.70;;;4.55;;
34489;SDS011;20730;49.372;7.324;2023-06-14T07:27:38;7.97;;;4.65;;
34489;SDS011;20730;49.372;7.324;2023-06-14T07:30:05;13.40;;;4.50;;
34489;SDS011;20730;49.372;7.324;2023-06-14T07:32:32;8.02;;;4.47;;
34489;SDS011;20730;49.372;7.324;2023-06-14T07:34:59;8.10;;;4.30;;
34489;SDS011;20730;49.372;7.324;2023-06-14T07:37:26;7.50;;;4.22;;
34489;SDS011;20730;49.372;7.324;2023-06-14T07:39:53;8.10;;;4.25;;
34489;SDS011;20730;49.372;7.324;2023-06-14T07:42:19;7.90;;;4.22;;
34489;SDS011;20730;49.372;7.324;2023-06-14T07:44:47;11.35;;;4.63;;
34489;SDS011;20730;49.372;7.324;2023-06-14T07:47:13;9.60;;;4.60;;
34489;SDS011;20730;49.372;7.324;2023-06-14T07:49:40;7.88;;;4.28;;
34489;SDS011;20730;49.372;7.324;2023-06-14T07:52:07;8.75;;;4.97;;
34489;SDS011;20730;49.372;7.324;2023-06-14T07:54:34;7.97;;;4.20;;
34489;SDS011;20730;49.372;7.324;2023-06-14T07:57:00;7.07;;;4.78;;
34489;SDS011;20730;49.372;7.324;2023-06-14T07:59:27;6.57;;;4.35;;
34489;SDS011;20730;49.372;7.324;2023-06-14T08:01:54;6.97;;;4.22;;
34489;SDS011;20730;49.372;7.324;2023-06-14T08:04:21;5.78;;;3.83;;
34489;SDS011;20730;49.372;7.324;2023-06-14T08:06:48;6.45;;;4.20;;
34489;SDS011;20730;49.372;7.324;2023-06-14T08:09:14;6.22;;;4.57;;
34489;SDS011;20730;49.372;7.324;2023-06-14T08:11:41;9.18;;;4.35;;
34489;SDS011;20730;49.372;7.324;2023-06-14T08:14:08;14.80;;;4.78;;
34489;SDS011;20730;49.372;7.324;2023-06-14T08:16:35;5.55;;;3.75;;
34489;SDS011;20730;49.372;7.324;2023-06-14T08:19:02;8.23;;;4.32;;
34489;SDS011;20730;49.372;7.324;2023-06-14T08:21:28;9.60;;;3.92;;
34489;SDS011;20730;49.372;7.324;2023-06-14T08:23:57;11.48;;;4.28;;
34489;SDS011;20730;49.372;7.324;2023-06-14T08:26:25;5.00;;;4.00;;
34489;SDS011;20730;49.372;7.324;2023-06-14T08:28:55;6.03;;;4.30;;
34489;SDS011;20730;49.372;7.324;2023-06-14T08:31:22;8.38;;;4.20;;
34489;SDS011;20730;49.372;7.324;2023-06-14T08:33:50;9.45;;;4.10;;
34489;SDS011;20730;49.372;7.324;2023-06-14T08:36:17;7.72;;;3.92;;
34489;SDS011;20730;49.372;7.324;2023-06-14T08:38:43;6.25;;;3.40;;
34489;SDS011;20730;49.372;7.324;2023-06-14T08:41:11;10.50;;;4.28;;
34489;SDS011;20730;49.372;7.324;2023-06-14T08:43:39;10.20;;;4.20;;
34489;SDS011;20730;49.372;7.324;2023-06-14T08:46:07;6.53;;;4.10;;
34489;SDS011;20730;49.372;7.324;2023-06-14T08:48:37;9.63;;;4.47;;
34489;SDS011;20730;49.372;7.324;2023-06-14T08:51:04;6.50;;;4.20;;
34489;SDS011;20730;49.372;7.324;2023-06-14T08:53:31;5.57;;;4.28;;
34489;SDS011;20730;49.372;7.324;2023-06-14T08:56:03;4.85;;;4.20;;
34489;SDS011;20730;49.372;7.324;2023-06-14T08:58:31;8.95;;;4.20;;
34489;SDS011;20730;49.372;7.324;2023-06-14T09:01:03;6.82;;;3.90;;
34489;SDS011;20730;49.372;7.324;2023-06-14T09:03:31;6.28;;;4.07;;
34489;SDS011;20730;49.372;7.324;2023-06-14T09:05:59;4.57;;;3.75;;
34489;SDS011;20730;49.372;7.324;2023-06-14T09:08:27;6.07;;;3.47;;
34489;SDS011;20730;49.372;7.324;2023-06-14T09:10:57;7.40;;;3.65;;
34489;SDS011;20730;49.372;7.324;2023-06-14T09:13:24;9.27;;;3.80;;
34489;SDS011;20730;49.372;7.324;2023-06-14T09:15:50;16.27;;;3.70;;
34489;SDS011;20730;49.372;7.324;2023-06-14T09:18:17;7.80;;;4.03;;
34489;SDS011;20730;49.372;7.324;2023-06-14T09:20:46;6.55;;;4.05;;
34489;SDS011;20730;49.372;7.324;2023-06-14T09:23:20;8.40;;;4.15;;
34489;SDS011;20730;49.372;7.324;2023-06-14T09:25:48;7.35;;;3.65;;
34489;SDS011;20730;49.372;7.324;2023-06-14T09:28:15;7.55;;;3.70;;
34489;SDS011;20730;49.372;7.324;2023-06-14T09:30:42;7.25;;;3.70;;
34489;SDS011;20730;49.372;7.324;2023-06-14T09:33:08;7.57;;;3.22;;
34489;SDS011;20730;49.372;7.324;2023-06-14T09:35:35;7.50;;;3.60;;
34489;SDS011;20730;49.372;7.324;2023-06-14T09:38:02;10.50;;;3.75;;
34489;SDS011;20730;49.372;7.324;2023-06-14T09:40:33;10.18;;;3.10;;
34489;SDS011;20730;49.372;7.324;2023-06-14T09:43:00;5.80;;;3.58;;
34489;SDS011;20730;49.372;7.324;2023-06-14T09:45:27;7.07;;;3.53;;
34489;SDS011;20730;49.372;7.324;2023-06-14T09:47:56;4.73;;;3.60;;
34489;SDS011;20730;49.372;7.324;2023-06-14T09:50:33;6.53;;;3.35;;
34489;SDS011;20730;49.372;7.324;2023-06-14T09:53:05;6.70;;;3.42;;
34489;SDS011;20730;49.372;7.324;2023-06-14T09:55:36;5.32;;;3.25;;
34489;SDS011;20730;49.372;7.324;2023-06-14T09:58:05;9.07;;;3.30;;
34489;SDS011;20730;49.372;7.324;2023-06-14T10:00:34;5.38;;;2.80;;
34489;SDS011;20730;49.372;7.324;2023-06-14T10:03:14;9.23;;;3.25;;
34489;SDS011;20730;49.372;7.324;2023-06-14T10:05:43;7.85;;;3.20;;
34489;SDS011;20730;49.372;7.324;2023-06-14T10:08:15;8.50;;;3.15;;
34489;SDS011;20730;49.372;7.324;2023-06-14T10:10:43;5.70;;;3.05;;
34489;SDS011;20730;49.372;7.324;2023-06-14T10:13:11;4.95;;;2.90;;
34489;SDS011;20730;49.372;7.324;2023-06-14T10:16:12;7.30;;;2.80;;
34489;SDS011;20730;49.372;7.324;2023-06-14T10:24:28;5.82;;;3.22;;
34489;SDS011;20730;49.372;7.324;2023-06-14T10:26:57;5.80;;;2.90;;
34489;SDS011;20730;49.372;7.324;2023-06-14T10:29:26;7.07;;;3.30;;
34489;SDS011;20730;49.372;7.324;2023-06-14T10:31:56;6.65;;;3.33;;
34489;SDS011;20730;49.372;7.324;2023-06-14T10:34:28;5.75;;;3.10;;
34489;SDS011;20730;49.372;7.324;2023-06-14T10:37:12;6.47;;;2.88;;
34489;SDS011;20730;49.372;7.324;2023-06-14T10:39:40;5.60;;;2.88;;
34489;SDS011;20730;49.372;7.324;2023-06-14T10:42:08;4.03;;;2.92;;
34489;SDS011;20730;49.372;7.324;2023-06-14T10:44:40;7.80;;;2.90;;
34489;SDS011;20730;49.372;7.324;2023-06-14T10:47:11;6.97;;;3.30;;
34489;SDS011;20730;49.372;7.324;2023-06-14T10:49:55;5.25;;;3.03;;
34489;SDS011;20730;49.372;7.324;2023-06-14T10:52:28;7.00;;;3.20;;
34489;SDS011;20730;49.372;7.324;2023-06-14T10:57:46;5.82;;;3.00;;
34489;SDS011;20730;49.372;7.324;2023-06-14T11:00:20;8.38;;;2.72;;
34489;SDS011;20730;49.372;7.324;2023-06-14T11:05:55;6.47;;;2.72;;
34489;SDS011;20730;49.372;7.324;2023-06-14T11:11:07;6.45;;;3.10;;
34489;SDS011;20730;49.372;7.324;2023-06-14T11:13:39;6.55;;;2.83;;
34489;SDS011;20730;49.372;7.324;2023-06-14T11:16:14;7.03;;;2.75;;
34489;SDS011;20730;49.372;7.324;2023-06-14T11:18:41;4.72;;;3.10;;
34489;SDS011;20730;49.372;7.324;2023-06-14T11:21:09;4.68;;;2.58;;
34489;SDS011;20730;49.372;7.324;2023-06-14T11:23:36;4.35;;;2.60;;
34489;SDS011;20730;49.372;7.324;2023-06-14T11:26:03;7.38;;;2.60;;
34489;SDS011;20730;49.372;7.324;2023-06-14T11:28:37;5.90;;;2.67;;
34489;SDS011;20730;49.372;7.324;2023-06-14T11:31:05;4.05;;;2.78;;
34489;SDS011;20730;49.372;7.324;2023-06-14T11:33:31;5.15;;;2.50;;
34489;SDS011;20730;49.372;7.324;2023-06-14T11:35:58;5.90;;;2.30;;
34489;SDS011;20730;49.372;7.324;2023-06-14T11:38:25;4.13;;;2.20;;
34489;SDS011;20730;49.372;7.324;2023-06-14T11:40:52;4.82;;;2.40;;
34489;SDS011;20730;49.372;7.324;2023-06-14T11:43:19;9.57;;;2.70;;
34489;SDS011;20730;49.372;7.324;2023-06-14T11:45:49;6.15;;;2.33;;
34489;SDS011;20730;49.372;7.324;2023-06-14T11:48:40;4.38;;;2.50;;
34489;SDS011;20730;49.372;7.324;2023-06-14T11:51:08;5.90;;;2.47;;
34489;SDS011;20730;49.372;7.324;2023-06-14T11:53:35;3.50;;;2.50;;
34489;SDS011;20730;49.372;7.324;2023-06-14T11:56:02;5.35;;;2.35;;
34489;SDS011;20730;49.372;7.324;2023-06-14T11:58:30;5.18;;;2.15;;
34489;SDS011;20730;49.372;7.324;2023-06-14T12:00:56;5.68;;;2.80;;
34489;SDS011;20730;49.372;7.324;2023-06-14T12:03:24;3.65;;;2.58;;
34489;SDS011;20730;49.372;7.324;2023-06-14T12:06:01;3.95;;;2.58;;
34489;SDS011;20730;49.372;7.324;2023-06-14T12:08:34;3.65;;;2.17;;
34489;SDS011;20730;49.372;7.324;2023-06-14T12:11:11;2.80;;;2.47;;
34489;SDS011;20730;49.372;7.324;2023-06-14T12:13:40;7.00;;;2.60;;
34489;SDS011;20730;49.372;7.324;2023-06-14T12:16:08;5.53;;;2.60;;
34489;SDS011;20730;49.372;7.324;2023-06-14T12:18:36;3.30;;;2.30;;
34489;SDS011;20730;49.372;7.324;2023-06-14T12:21:05;7.43;;;2.38;;
34489;SDS011;20730;49.372;7.324;2023-06-14T12:23:48;4.05;;;2.50;;
34489;SDS011;20730;49.372;7.324;2023-06-14T12:26:17;6.13;;;2.70;;
34489;SDS011;20730;49.372;7.324;2023-06-14T12:28:45;3.85;;;2.42;;
34489;SDS011;20730;49.372;7.324;2023-06-14T12:31:12;3.22;;;2.42;;
34489;SDS011;20730;49.372;7.324;2023-06-14T12:33:40;4.63;;;2.58;;
34489;SDS011;20730;49.372;7.324;2023-06-14T12:36:08;6.35;;;2.70;;
34489;SDS011;20730;49.372;7.324;2023-06-14T12:38:36;4.60;;;2.50;;
34489;SDS011;20730;49.372;7.324;2023-06-14T12:41:03;7.38;;;2.55;;
34489;SDS011;20730;49.372;7.324;2023-06-14T12:43:30;4.15;;;2.53;;
34489;SDS011;20730;49.372;7.324;2023-06-14T12:45:57;3.67;;;2.47;;
34489;SDS011;20730;49.372;7.324;2023-06-14T12:48:24;3.13;;;2.20;;
34489;SDS011;20730;49.372;7.324;2023-06-14T12:50:53;6.28;;;2.70;;
34489;SDS011;20730;49.372;7.324;2023-06-14T12:53:20;2.83;;;2.10;;
34489;SDS011;20730;49.372;7.324;2023-06-14T12:55:47;4.68;;;2.38;;
34489;SDS011;20730;49.372;7.324;2023-06-14T12:58:14;4.13;;;2.20;;
34489;SDS011;20730;49.372;7.324;2023-06-14T13:00:40;3.22;;;2.33;;
34489;SDS011;20730;49.372;7.324;2023-06-14T13:03:07;7.95;;;2.75;;
34489;SDS011;20730;49.372;7.324;2023-06-14T13:05:34;2.83;;;2.00;;
34489;SDS011;20730;49.372;7.324;2023-06-14T13:08:01;3.83;;;2.22;;
34489;SDS011;20730;49.372;7.324;2023-06-14T13:10:28;4.88;;;2.50;;
34489;SDS011;20730;49.372;7.324;2023-06-14T13:12:54;4.07;;;2.05;;
34489;SDS011;20730;49.372;7.324;2023-06-14T13:15:24;5.75;;;2.30;;
34489;SDS011;20730;49.372;7.324;2023-06-14T13:17:51;4.70;;;2.25;;
34489;SDS011;20730;49.372;7.324;2023-06-14T13:20:18;4.93;;;2.28;;
34489;SDS011;20730;49.372;7.324;2023-06-14T13:22:46;3.25;;;2.58;;
34489;SDS011;20730;49.372;7.324;2023-06-14T13:25:13;8.25;;;2.05;;
34489;SDS011;20730;49.372;7.324;2023-06-14T13:27:40;3.88;;;2.28;;
34489;SDS011;20730;49.372;7.324;2023-06-14T13:30:06;5.07;;;2.10;;
34489;SDS011;20730;49.372;7.324;2023-06-14T13:32:33;5.15;;;2.55;;
34489;SDS011;20730;49.372;7.324;2023-06-14T13:35:00;3.03;;;2.17;;
34489;SDS011;20730;49.372;7.324;2023-06-14T13:37:27;8.40;;;2.00;;
34489;SDS011;20730;49.372;7.324;2023-06-14T13:39:54;3.47;;;2.35;;
34489;SDS011;20730;49.372;7.324;2023-06-14T13:42:21;5.40;;;1.92;;
34489;SDS011;20730;49.372;7.324;2023-06-14T13:44:48;4.75;;;2.15;;
34489;SDS011;20730;49.372;7.324;2023-06-14T13:47:15;4.03;;;1.92;;
34489;SDS011;20730;49.372;7.324;2023-06-14T13:49:42;5.63;;;2.30;;
34489;SDS011;20730;49.372;7.324;2023-06-14T13:52:09;2.63;;;2.00;;
34489;SDS011;20730;49.372;7.324;2023-06-14T13:54:36;2.28;;;2.08;;
34489;SDS011;20730;49.372;7.324;2023-06-14T13:57:03;5.80;;;1.98;;
34489;SDS011;20730;49.372;7.324;2023-06-14T13:59:30;7.03;;;1.90;;
34489;SDS011;20730;49.372;7.324;2023-06-14T14:01:57;7.57;;;1.98;;
34489;SDS011;20730;49.372;7.324;2023-06-14T14:04:24;1.73;;;1.60;;
34489;SDS011;20730;49.372;7.324;2023-06-14T14:06:51;3.85;;;2.22;;
34489;SDS011;20730;49.372;7.324;2023-06-14T14:09:18;3.70;;;1.80;;
34489;SDS011;20730;49.372;7.324;2023-06-14T14:11:45;1.95;;;1.83;;
34489;SDS011;20730;49.372;7.324;2023-06-14T14:14:12;3.28;;;1.65;;
34489;SDS011;20730;49.372;7.324;2023-06-14T14:16:39;3.05;;;2.13;;
34489;SDS011;20730;49.372;7.324;2023-06-14T14:19:05;2.05;;;1.80;;
34489;SDS011;20730;49.372;7.324;2023-06-14T14:21:33;2.83;;;1.83;;
34489;SDS011;20730;49.372;7.324;2023-06-14T14:24:00;4.70;;;1.70;;
34489;SDS011;20730;49.372;7.324;2023-06-14T14:26:27;2.15;;;1.95;;
34489;SDS011;20730;49.372;7.324;2023-06-14T14:28:53;6.57;;;2.75;;
34489;SDS011;20730;49.372;7.324;2023-06-14T14:31:20;1.80;;;1.50;;
34489;SDS011;20730;49.372;7.324;2023-06-14T14:33:47;7.70;;;1.58;;
34489;SDS011;20730;49.372;7.324;2023-06-14T14:36:14;1.90;;;1.80;;
34489;SDS011;20730;49.372;7.324;2023-06-14T14:38:41;3.75;;;1.80;;
34489;SDS011;20730;49.372;7.324;2023-06-14T14:41:07;10.15;;;2.35;;
34489;SDS011;20730;49.372;7.324;2023-06-14T14:43:34;190.55;;;20.10;;
34489;SDS011;20730;49.372;7.324;2023-06-14T14:46:01;5.22;;;1.63;;
34489;SDS011;20730;49.372;7.324;2023-06-14T14:48:28;3.25;;;1.88;;
34489;SDS011;20730;49.372;7.324;2023-06-14T14:50:54;4.45;;;1.77;;
34489;SDS011;20730;49.372;7.324;2023-06-14T14:53:21;4.13;;;1.60;;
34489;SDS011;20730;49.372;7.324;2023-06-14T14:55:48;1.88;;;1.70;;
34489;SDS011;20730;49.372;7.324;2023-06-14T14:58:15;4.38;;;1.65;;
34489;SDS011;20730;49.372;7.324;2023-06-14T15:00:44;3.65;;;2.08;;
34489;SDS011;20730;49.372;7.324;2023-06-14T15:05:41;7.28;;;1.77;;
34489;SDS011;20730;49.372;7.324;2023-06-14T15:08:07;3.95;;;1.75;;
34489;SDS011;20730;49.372;7.324;2023-06-14T15:10:38;2.72;;;1.73;;
34489;SDS011;20730;49.372;7.324;2023-06-14T15:13:07;2.00;;;1.80;;
34489;SDS011;20730;49.372;7.324;2023-06-14T15:15:34;2.58;;;1.60;;